Flight Track Log - Related Links

Times and Time Zones

All times are in EDT time to prevent confusion due to time zone crossing. See the CTL13 flight status page for this flight to view local times or setup timezone preferences in your user account.

Time Position Orientation Groundspeed Altitude Reporting Facility
EDT Latitude Longitude Course Direction KTS MPH feet Rate Location/Type
Fri 06:58:27 PM 41.5356 -81.6844 323° Northwest 124 143 1,500  Level Cleveland Center
Fri 06:59:39 PM 41.5686 -81.7183 323° Northwest 135 155 2,900 1,308 Climbing Cleveland Center
Fri 07:00:40 PM 41.5975 -81.7494 321° Northwest 130 150 4,400 1,313 Climbing Cleveland Center
Fri 07:01:47 PM 41.6158 -81.7942 299° West 131 151 5,700 906 Climbing Cleveland Center
Fri 07:02:59 PM 41.5842 -81.8433 229° Southwest 156 180 6,500 661 Climbing Cleveland Center
Fri 07:03:54 PM 41.5669 -81.8819 239° Southwest 148 170 7,100 600 Climbing Cleveland Center
Fri 07:04:49 PM 41.5478 -81.9261 240° Southwest 153 176 7,600 470 Climbing Cleveland Center
Fri 07:05:49 PM 41.5242 -81.9808 240° Southwest 160 184 8,000 142 Climbing Cleveland Center
Fri 07:06:56 PM 41.5025 -82.0442 245° Southwest 173 199 7,900 -49 Descending Cleveland Center
Fri 07:07:51 PM 41.4789 -82.0964 239° Southwest 169 194 7,900  Level Cleveland Center
Fri 07:08:57 PM 41.4572 -82.1486 241° Southwest 163 188 7,900  Level Cleveland Center
Fri 07:09:40 PM 41.4422 -82.1897 244° Southwest 162 186 7,900  Level Cleveland Center
Fri 07:10:41 PM 41.4206 -82.2472 243° Southwest 164 189 7,900 26 Level Cleveland Center
Fri 07:12:00 PM 41.3792 -82.3033 225° Southwest  Level FlightAware Approximate
Fri 07:19:00 PM 41.2422 -82.6791 245° Southwest  Level Estimated
Fri 07:20:00 PM 41.2192 -82.7302 239° Southwest  Level FlightAware Approximate
Fri 07:21:00 PM 41.1962 -82.7813 239° Southwest  Level FlightAware Approximate
Fri 07:21:06 PM 41.1997 -82.8067 239° Southwest 171 197 8,200  Level Indianapolis Center
Fri 07:22:00 PM 41.1731 -82.8324 239° Southwest  Level FlightAware Approximate
Fri 07:22:08 PM 41.1775 -82.8619 242° Southwest 169 194 8,200  Level Indianapolis Center
Fri 07:23:00 PM 41.1500 -82.8834 239° Southwest  Level FlightAware Approximate
Fri 07:23:09 PM 41.1544 -82.9172 241° Southwest 169 194 8,200  Level Indianapolis Center
Fri 07:24:00 PM 41.1269 -82.9344 239° Southwest  Level FlightAware Approximate
Fri 07:24:11 PM 41.1319 -82.9722 242° Southwest 169 194 8,200  Level Indianapolis Center
Fri 07:25:00 PM 41.1038 -82.9853 239° Southwest  Level FlightAware Approximate
Fri 07:25:13 PM 41.1086 -83.0275 241° Southwest 170 196 8,200  Level Indianapolis Center
Fri 07:26:00 PM 41.0806 -83.0363 239° Southwest  Level FlightAware Approximate
Fri 07:26:14 PM 41.0847 -83.0822 240° Southwest 171 197 8,200  Level Indianapolis Center
Fri 07:27:16 PM 41.0617 -83.1378 241° Southwest 171 197 8,200 -97 Level Indianapolis Center
Fri 07:28:18 PM 41.0383 -83.1928 241° Southwest 170 196 8,000 -49 Descending Indianapolis Center
Fri 07:29:19 PM 41.0144 -83.2475 240° Southwest 170 196 8,100  Climbing Indianapolis Center
Fri 07:30:21 PM 40.9853 -83.3097 238° Southwest 171 197 8,000 -48 Descending Indianapolis Center
Fri 07:31:23 PM 40.9614 -83.3653 240° Southwest 171 197 8,000  Level Indianapolis Center
Fri 07:32:24 PM 40.9375 -83.4200 240° Southwest 172 198 8,000  Level Indianapolis Center
Fri 07:33:26 PM 40.9133 -83.4744 240° Southwest 171 197 8,000  Level Indianapolis Center
Fri 07:34:28 PM 40.8917 -83.5264 241° Southwest 170 196 8,000  Level Indianapolis Center
Fri 07:35:29 PM 40.8661 -83.5819 239° Southwest 173 199 8,000  Level Indianapolis Center
Fri 07:36:31 PM 40.8394 -83.6467 241° Southwest 173 199 8,000  Level Indianapolis Center
Fri 07:37:32 PM 40.8178 -83.7022 243° Southwest 169 194 8,000  Level Indianapolis Center
Fri 07:38:34 PM 40.7944 -83.7583 241° Southwest 172 198 8,000  Level Indianapolis Center
Fri 07:39:36 PM 40.7722 -83.8139 242° Southwest 171 197 8,000  Level Indianapolis Center
Fri 07:40:37 PM 40.7483 -83.8686 240° Southwest 171 197 8,000  Level Indianapolis Center
Fri 07:41:39 PM 40.7244 -83.9233 240° Southwest 171 197 8,000  Level Indianapolis Center
Fri 07:42:40 PM 40.7047 -83.9786 245° Southwest 168 193 8,000  Level Indianapolis Center
Fri 07:43:42 PM 40.6825 -84.0342 242° Southwest 169 194 8,000  Level Indianapolis Center
Fri 07:44:44 PM 40.6619 -84.0903 244° Southwest 170 196 8,000  Level Indianapolis Center
Fri 07:45:25 PM 40.6422 -84.1383 242° Southwest 169 194 8,000  Level Indianapolis Center
Fri 07:45:45 PM 40.6381 -84.1564 253° West 170 196 8,000  Level Indianapolis Center
Fri 07:46:38 PM 40.6206 -84.2014 243° Southwest 168 193 8,000  Level Indianapolis Center
Fri 07:47:38 PM 40.5972 -84.2614 243° Southwest 168 193 8,000  Level Indianapolis Center
Fri 07:48:33 PM 40.5808 -84.3089 246° West 171 197 8,000  Level Indianapolis Center
Fri 07:48:50 PM 40.5761 -84.3247 249° West 168 193 8,000  Level Indianapolis Center
Fri 07:49:34 PM 40.5592 -84.3692 243° Southwest 167 192 8,000  Level Indianapolis Center
Fri 07:49:52 PM 40.5567 -84.3806 254° West 168 193 8,000  Level Indianapolis Center
Fri 07:50:29 PM 40.5431 -84.4164 243° Southwest 169 194 8,000  Level Indianapolis Center
Fri 07:50:53 PM 40.5356 -84.4364 244° Southwest 169 194 8,000  Level Indianapolis Center
Fri 07:51:23 PM 40.5242 -84.4658 243° Southwest 168 193 8,000  Level Indianapolis Center
Fri 07:51:55 PM 40.5153 -84.4928 247° West 169 194 8,000  Level Indianapolis Center
Fri 07:52:30 PM 40.5003 -84.5311 243° Southwest 168 193 8,000 98 Level Indianapolis Center
Fri 07:52:56 PM 40.4953 -84.5478 248° West 167 192 8,100 111 Climbing Indianapolis Center
Fri 07:53:24 PM 40.4836 -84.5811 245° Southwest 167 192 8,100  Level Indianapolis Center
Fri 07:53:58 PM 40.4739 -84.6033 240° Southwest 168 193 8,100  Level Indianapolis Center
Fri 07:54:31 PM 40.4600 -84.6381 242° Southwest 167 192 8,100  Level Indianapolis Center
Fri 07:55:00 PM 40.4536 -84.6575 247° West 166 191 8,100  Level Indianapolis Center
Fri 07:55:38 PM 40.4358 -84.7033 243° Southwest 167 192 8,100 -98 Level Indianapolis Center
Fri 07:56:01 PM 40.4297 -84.7222 247° West 167 192 8,000  Descending Indianapolis Center
Fri 07:56:38 PM 40.4167 -84.7583 245° Southwest 168 193 8,100 97 Climbing Indianapolis Center
Fri 07:57:03 PM 40.4103 -84.7775 246° West 166 191 8,100  Level Indianapolis Center
Fri 07:57:33 PM 40.3978 -84.8078 242° Southwest 167 192 8,100  Level Indianapolis Center
Fri 07:58:04 PM 40.3886 -84.8322 244° Southwest 167 192 8,100  Level Indianapolis Center
Fri 07:58:40 PM 40.3761 -84.8650 243° Southwest 166 191 8,100  Level Indianapolis Center
Fri 07:59:06 PM 40.3681 -84.8867 244° Southwest 165 190 8,100  Level Indianapolis Center
Fri 07:59:40 PM 40.3547 -84.9194 242° Southwest 166 191 8,100  Level Indianapolis Center
Fri 08:00:07 PM 40.3492 -84.9386 249° West 166 191 8,100  Level Indianapolis Center
Fri 08:00:41 PM 40.3356 -84.9742 243° Southwest 167 192 8,100  Level Indianapolis Center
Fri 08:01:09 PM 40.3281 -84.9939 243° Southwest 168 193 8,100  Level Indianapolis Center
Fri 08:01:42 PM 40.3136 -85.0339 245° Southwest 168 193 8,100  Level Indianapolis Center
Fri 08:02:11 PM 40.3036 -85.0572 241° Southwest 166 191 8,100  Level Indianapolis Center
Fri 08:02:42 PM 40.2925 -85.0856 243° Southwest 167 192 8,100  Level Indianapolis Center
Fri 08:03:12 PM 40.2831 -85.1122 245° Southwest 168 193 8,100  Level Indianapolis Center
Fri 08:03:37 PM 40.2753 -85.1381 248° West 165 190 8,100  Level Indianapolis Center
Fri 08:04:14 PM 40.2642 -85.1672 243° Southwest 165 190 8,100 -82 Level Indianapolis Center
Fri 08:04:50 PM 40.2511 -85.2000 242° Southwest 167 192 8,000 -98 Descending Indianapolis Center
Fri 08:05:15 PM 40.2436 -85.2225 246° West 166 191 8,000 -138 Level Indianapolis Center
Fri 08:06:17 PM 40.2233 -85.2772 244° Southwest 167 192 7,800 -341 Descending Indianapolis Center
Fri 08:07:18 PM 40.1986 -85.3367 241° Southwest 181 208 7,300 -488 Descending Indianapolis Center
Fri 08:08:20 PM 40.1742 -85.3942 241° Southwest 181 208 6,800 -537 Descending Indianapolis Center
Fri 08:09:21 PM 40.1528 -85.4533 245° Southwest 180 207 6,200 -537 Descending Indianapolis Center
Fri 08:10:23 PM 40.1294 -85.5144 243° Southwest 183 211 5,700 -537 Descending Indianapolis Center
Fri 08:11:24 PM 40.1058 -85.5725 242° Southwest 182 209 5,100 -585 Descending Indianapolis Center
Fri 08:12:26 PM 40.0767 -85.6417 241° Southwest 184 212 4,500 -488 Descending Indianapolis Center
Fri 08:13:27 PM 40.0547 -85.6978 243° Southwest 179 206 4,100 -244 Descending Indianapolis Center
Fri 08:14:29 PM 40.0319 -85.7525 241° Southwest 174 200 4,000  Descending Indianapolis Center
Fri 08:15:30 PM 40.0125 -85.8058 245° Southwest 167 192 4,100 -49 Climbing Indianapolis Center
Fri 08:16:32 PM 39.9931 -85.8594 245° Southwest 164 189 3,900 -341 Descending Indianapolis Center
Fri 08:17:33 PM 39.9711 -85.9164 243° Southwest 169 194 3,400 -390 Descending Indianapolis Center
Fri 08:18:35 PM 39.9486 -85.9725 242° Southwest 172 198 3,100 -195 Descending Indianapolis Center
Fri 08:19:36 PM 39.9239 -86.0342 242° Southwest 172 198 3,000 -98 Descending Indianapolis Center

Login

Don't have an account? Register now (free) for customized features, flight alerts, and more!